createdAt,value
2019-06-07T00:00:35.005Z,23.27
2019-06-07T00:02:42.491Z,22.20
2019-06-07T00:05:14.961Z,21.83
2019-06-07T00:07:41.499Z,19.83
2019-06-07T00:10:14.466Z,25.23
2019-06-07T00:12:40.965Z,21.37
2019-06-07T00:15:15.004Z,22.50
2019-06-07T00:17:40.630Z,30.03
2019-06-07T00:20:13.818Z,25.07
2019-06-07T00:22:40.218Z,27.20
2019-06-07T00:25:12.753Z,26.17
2019-06-07T00:27:40.424Z,28.47
2019-06-07T00:30:32.533Z,30.03
2019-06-07T00:32:40.570Z,22.40
2019-06-07T00:35:12.071Z,33.40
2019-06-07T00:37:41.851Z,27.83
2019-06-07T00:40:17.740Z,26.27
2019-06-07T00:42:41.995Z,27.47
2019-06-07T00:45:11.987Z,27.43
2019-06-07T00:47:41.512Z,26.80
2019-06-07T00:50:11.344Z,27.83
2019-06-07T00:53:13.961Z,27.73
2019-06-07T00:55:14.274Z,27.03
2019-06-07T00:57:41.727Z,26.03
2019-06-07T01:00:12.521Z,24.77
2019-06-07T01:02:41.475Z,24.07
2019-06-07T01:05:10.387Z,28.57
2019-06-07T01:07:39.528Z,28.53
2019-06-07T01:10:11.567Z,27.60
2019-06-07T01:12:40.712Z,31.47
2019-06-07T01:15:11.915Z,25.93
2019-06-07T01:18:11.964Z,30.50
2019-06-07T01:20:12.239Z,27.90
2019-06-07T01:22:40.791Z,24.57
2019-06-07T01:25:10.102Z,24.90
2019-06-07T01:27:39.344Z,27.73
2019-06-07T01:30:12.111Z,26.90
2019-06-07T01:32:40.749Z,33.63
2019-06-07T01:35:09.734Z,32.10
2019-06-07T01:37:38.484Z,30.37
2019-06-07T01:40:07.724Z,35.77
2019-06-07T01:42:36.544Z,35.63
2019-06-07T01:45:08.739Z,36.80
2019-06-07T01:47:37.249Z,33.90
2019-06-07T01:50:08.253Z,42.60
2019-06-07T01:52:36.856Z,39.10
2019-06-07T01:55:07.370Z,37.73
2019-06-07T01:57:47.755Z,37.00
2019-06-07T02:00:07.673Z,35.70
2019-06-07T02:02:36.332Z,42.90
2019-06-07T02:05:08.575Z,35.17
2019-06-07T02:07:37.535Z,33.43
2019-06-07T02:10:07.162Z,38.80
2019-06-07T02:12:42.903Z,37.07
2019-06-07T02:15:08.350Z,31.83
2019-06-07T02:17:37.373Z,35.00
2019-06-07T02:20:06.663Z,34.43
2019-06-07T02:22:35.382Z,42.23
2019-06-07T02:25:35.188Z,36.43
2019-06-07T02:27:36.571Z,39.67
2019-06-07T02:30:37.297Z,40.63
2019-06-07T02:32:37.773Z,36.87
2019-06-07T02:35:07.562Z,37.67
2019-06-07T02:37:37.206Z,34.87
2019-06-07T02:40:09.793Z,35.70
2019-06-07T02:42:42.698Z,32.97
2019-06-07T02:45:10.690Z,43.27
2019-06-07T02:47:39.953Z,35.63
2019-06-07T02:50:10.523Z,41.17
2019-06-07T02:52:40.954Z,37.10
2019-06-07T02:55:10.131Z,32.33
2019-06-07T02:57:41.442Z,30.57
2019-06-07T03:00:40.598Z,32.90
2019-06-07T03:02:42.086Z,30.83
2019-06-07T03:05:11.493Z,31.47
2019-06-07T03:07:45.311Z,33.17
2019-06-07T03:10:12.582Z,35.63
2019-06-07T03:12:43.165Z,33.23
2019-06-07T03:15:32.327Z,34.97
2019-06-07T03:17:48.441Z,38.37
2019-06-07T03:20:22.191Z,31.27
2019-06-07T03:22:51.604Z,37.60
2019-06-07T03:25:20.222Z,37.47
2019-06-07T03:27:50.317Z,40.80
2019-06-07T03:30:40.166Z,40.30
2019-06-07T03:32:49.531Z,40.40
2019-06-07T03:35:18.414Z,38.13
2019-06-07T03:37:47.007Z,44.37
2019-06-07T03:40:15.719Z,43.13
2019-06-07T03:42:44.297Z,48.70
2019-06-07T03:45:12.963Z,48.40
2019-06-07T03:47:43.037Z,51.53
2019-06-07T03:50:12.699Z,48.60
2019-06-07T03:52:41.858Z,46.43
2019-06-07T03:55:10.735Z,55.83
2019-06-07T03:58:29.340Z,47.60
2019-06-07T04:00:10.196Z,59.20
2019-06-07T04:02:41.871Z,53.50
2019-06-07T04:05:08.986Z,51.87
2019-06-07T04:07:43.455Z,50.97
2019-06-07T04:10:08.143Z,43.70
2019-06-07T04:12:39.969Z,33.90
2019-06-07T04:15:07.654Z,28.83
2019-06-07T04:17:39.307Z,23.77
2019-06-07T04:20:06.915Z,20.40
2019-06-07T04:22:39.525Z,19.07
2019-06-07T04:25:09.950Z,20.80
2019-06-07T04:27:40.814Z,17.93
2019-06-07T04:30:10.134Z,17.67
2019-06-07T04:32:40.577Z,16.90
2019-06-07T04:35:08.998Z,17.47
2019-06-07T04:37:41.157Z,18.43
2019-06-07T04:40:09.002Z,19.17
2019-06-07T04:42:43.862Z,17.07
2019-06-07T04:45:32.677Z,18.70
2019-06-07T04:47:42.621Z,18.07
2019-06-07T04:50:11.375Z,18.27
2019-06-07T04:52:42.775Z,18.87
2019-06-07T04:55:10.433Z,21.30
2019-06-07T04:57:42.822Z,15.93
2019-06-07T05:00:48.666Z,17.43
2019-06-07T05:02:56.119Z,18.80
2019-06-07T05:05:24.710Z,15.07
2019-06-07T05:07:53.398Z,17.53
2019-06-07T05:10:22.022Z,16.93
2019-06-07T05:12:50.569Z,17.93
2019-06-07T05:15:19.490Z,19.03
2019-06-07T05:17:48.083Z,18.90
2019-06-07T05:20:17.211Z,19.23
2019-06-07T05:22:45.940Z,17.53
2019-06-07T05:25:15.597Z,17.03
2019-06-07T05:27:46.940Z,14.93
2019-06-07T05:30:51.011Z,14.50
2019-06-07T05:32:48.049Z,13.73
2019-06-07T05:35:16.887Z,14.23
2019-06-07T05:37:45.963Z,12.37
2019-06-07T05:40:17.854Z,25.13
2019-06-07T05:42:46.884Z,14.00
2019-06-07T05:45:18.681Z,12.80
2019-06-07T05:47:51.112Z,13.00
2019-06-07T05:50:38.379Z,13.90
2019-06-07T05:52:47.839Z,14.30
2019-06-07T05:55:16.477Z,13.37
2019-06-07T05:57:49.162Z,15.03
2019-06-07T06:00:15.442Z,12.63
2019-06-07T06:03:00.198Z,12.43
2019-06-07T06:05:32.463Z,12.20
2019-06-07T06:07:49.571Z,12.73
2019-06-07T06:10:14.916Z,12.83
2019-06-07T06:12:51.269Z,11.87
2019-06-07T06:15:14.003Z,13.07
2019-06-07T06:17:45.976Z,11.60
2019-06-07T06:20:13.922Z,12.90
2019-06-07T06:22:44.855Z,12.10
2019-06-07T06:30:16.078Z,16.73
2019-06-07T06:32:52.649Z,12.40
2019-06-07T06:35:15.328Z,12.50
2019-06-07T06:37:47.180Z,11.50
2019-06-07T06:40:16.204Z,12.77
2019-06-07T06:42:48.421Z,11.37
2019-06-07T06:45:18.135Z,12.60
2019-06-07T06:47:48.878Z,11.63
2019-06-07T06:50:17.589Z,12.90
2019-06-07T06:52:48.526Z,12.00
2019-06-07T06:55:16.749Z,14.33
2019-06-07T06:57:45.845Z,13.10
2019-06-07T07:00:15.959Z,11.50
2019-06-07T07:03:35.055Z,11.13
2019-06-07T07:05:15.476Z,11.63
2019-06-07T07:07:45.408Z,11.17
2019-06-07T07:10:16.329Z,11.67
2019-06-07T07:12:45.498Z,12.10
2019-06-07T07:15:17.610Z,11.60
2019-06-07T07:17:56.670Z,14.53
2019-06-07T07:20:16.517Z,11.43
2019-06-07T07:22:47.649Z,11.33
2019-06-07T07:25:15.468Z,11.87
2019-06-07T07:27:44.601Z,11.30
2019-06-07T07:30:35.901Z,12.20
2019-06-07T07:32:46.135Z,11.57
2019-06-07T07:35:14.673Z,12.10
2019-06-07T07:37:45.417Z,11.50
2019-06-07T07:40:55.328Z,12.07
2019-06-07T07:42:45.193Z,11.10
2019-06-07T07:45:14.301Z,11.27
2019-06-07T07:48:03.458Z,13.97
2019-06-07T07:50:13.396Z,10.80
2019-06-07T07:52:41.998Z,10.27
2019-06-07T07:55:10.726Z,11.10
2019-06-07T07:57:39.275Z,10.13
2019-06-07T08:00:48.735Z,10.93
2019-06-07T08:02:38.595Z,11.23
2019-06-07T08:05:25.277Z,9.93
2019-06-07T08:07:38.473Z,9.60
2019-06-07T08:10:08.415Z,11.00
2019-06-07T08:12:55.867Z,11.43
2019-06-07T08:15:08.084Z,11.90
2019-06-07T08:17:36.731Z,10.13
2019-06-07T08:20:09.532Z,10.20
2019-06-07T08:22:38.281Z,10.23
2019-06-07T08:25:07.897Z,10.50
2019-06-07T08:27:37.963Z,9.47
2019-06-07T08:30:46.528Z,10.17
2019-06-07T08:32:39.704Z,10.00
2019-06-07T08:35:08.829Z,10.80
2019-06-07T08:40:09.316Z,9.47
2019-06-07T08:42:59.475Z,9.73
2019-06-07T08:45:09.546Z,9.20
2019-06-07T08:47:38.270Z,9.73
2019-06-07T08:50:09.406Z,9.27
2019-06-07T08:52:38.113Z,10.60
2019-06-07T08:55:07.092Z,9.47
2019-06-07T08:57:35.701Z,9.70
2019-06-07T09:00:42.527Z,9.33
2019-06-07T09:02:37.777Z,9.70
2019-06-07T09:05:12.314Z,10.37
2019-06-07T09:07:37.530Z,8.73
2019-06-07T09:10:14.466Z,9.30
2019-06-07T09:12:40.725Z,8.93
2019-06-07T09:15:21.240Z,9.30
2019-06-07T09:18:29.740Z,9.13
2019-06-07T09:20:35.015Z,9.17
2019-06-07T09:22:42.337Z,9.47
2019-06-07T09:25:20.563Z,8.43
2019-06-07T09:27:41.403Z,9.60
2019-06-07T09:30:16.313Z,8.67
2019-06-07T09:32:41.098Z,7.83
2019-06-07T09:35:16.625Z,7.97
2019-06-07T09:38:07.904Z,6.97
2019-06-07T09:40:24.837Z,7.90
2019-06-07T09:42:41.518Z,7.77
2019-06-07T09:45:13.940Z,7.93
2019-06-07T09:47:40.773Z,6.90
2019-06-07T09:50:12.211Z,6.97
2019-06-07T09:52:57.231Z,6.80
2019-06-07T09:55:22.860Z,7.00
2019-06-07T09:57:40.377Z,7.30
2019-06-07T10:00:38.958Z,7.77
2019-06-07T10:02:44.392Z,6.17
2019-06-07T10:05:14.268Z,6.30
2019-06-07T10:08:00.013Z,6.27
2019-06-07T10:12:44.103Z,6.93
2019-06-07T10:15:13.052Z,6.93
2019-06-07T10:17:41.615Z,7.20
2019-06-07T10:20:10.750Z,6.07
2019-06-07T10:22:39.454Z,7.43
2019-06-07T10:25:08.583Z,6.13
2019-06-07T10:27:37.399Z,6.30
2019-06-07T10:30:10.373Z,5.70
2019-06-07T10:32:39.172Z,6.70
2019-06-07T10:35:11.374Z,6.50
2019-06-07T10:37:38.812Z,5.90
2019-06-07T10:40:09.081Z,5.60
2019-06-07T10:42:37.911Z,8.53
2019-06-07T10:45:08.294Z,6.40
2019-06-07T10:47:37.870Z,5.90
2019-06-07T10:50:08.106Z,4.67
2019-06-07T10:52:36.873Z,6.20
2019-06-07T10:55:06.528Z,5.53
2019-06-07T10:57:35.313Z,5.70
2019-06-07T11:00:07.177Z,10.33
2019-06-07T11:02:35.845Z,5.47
2019-06-07T11:05:08.086Z,5.03
2019-06-07T11:07:36.996Z,5.40
2019-06-07T11:10:14.561Z,5.00
2019-06-07T11:12:38.454Z,4.80
2019-06-07T11:15:08.957Z,7.20
2019-06-07T11:17:38.066Z,5.30
2019-06-07T11:20:08.198Z,5.13
2019-06-07T11:22:37.011Z,5.37
2019-06-07T11:25:07.753Z,5.70
2019-06-07T11:27:36.778Z,5.43
2019-06-07T11:30:08.662Z,4.80
2019-06-07T11:32:37.287Z,5.53
2019-06-07T11:35:10.651Z,5.60
2019-06-07T11:37:39.889Z,5.00
2019-06-07T11:40:27.733Z,5.93
2019-06-07T11:42:40.528Z,5.20
2019-06-07T11:45:12.465Z,5.00
2019-06-07T11:47:40.900Z,4.60
2019-06-07T11:50:11.740Z,4.23
2019-06-07T11:52:40.480Z,5.00
2019-06-07T11:55:11.598Z,5.10
2019-06-07T11:57:40.472Z,4.97
2019-06-07T12:00:13.938Z,5.00
2019-06-07T12:02:42.930Z,5.20
2019-06-07T12:05:16.197Z,5.00
2019-06-07T12:07:42.611Z,4.80
2019-06-07T12:10:12.546Z,4.90
2019-06-07T12:12:41.399Z,5.60
2019-06-07T12:15:11.007Z,6.23
2019-06-07T12:17:40.367Z,4.53
2019-06-07T12:20:11.293Z,4.83
2019-06-07T12:22:39.820Z,4.87
2019-06-07T12:25:10.205Z,5.17
2019-06-07T12:27:39.214Z,5.23
2019-06-07T12:30:11.235Z,5.37
2019-06-07T12:32:39.164Z,4.90
2019-06-07T12:35:08.352Z,6.33
2019-06-07T12:37:43.814Z,5.40
2019-06-07T12:40:08.500Z,5.53
2019-06-07T12:42:37.722Z,5.10
2019-06-07T12:45:07.055Z,5.13
2019-06-07T12:47:35.628Z,5.20
2019-06-07T12:50:08.296Z,6.33
2019-06-07T12:52:37.123Z,5.27
2019-06-07T12:55:07.556Z,5.00
2019-06-07T12:57:36.290Z,6.00
2019-06-07T13:00:12.191Z,6.10
2019-06-07T13:02:40.813Z,5.30
2019-06-07T13:05:10.133Z,4.80
2019-06-07T13:07:38.805Z,5.20
2019-06-07T13:10:09.338Z,5.90
2019-06-07T13:12:38.238Z,5.20
2019-06-07T13:15:08.142Z,5.10
2019-06-07T13:17:37.846Z,5.50
2019-06-07T13:20:07.955Z,4.53
2019-06-07T13:22:36.771Z,4.93
2019-06-07T13:25:07.483Z,4.70
2019-06-07T13:27:36.232Z,5.43
2019-06-07T13:30:10.271Z,4.90
2019-06-07T13:32:37.308Z,5.27
2019-06-07T13:35:07.390Z,9.10
2019-06-07T13:37:36.247Z,5.17
2019-06-07T13:40:07.768Z,5.20
2019-06-07T13:42:36.538Z,5.30
2019-06-07T13:45:09.186Z,5.60
2019-06-07T13:47:37.795Z,7.03
2019-06-07T13:50:07.928Z,5.60
2019-06-07T13:52:37.649Z,4.87
2019-06-07T13:55:06.798Z,5.00
2019-06-07T13:57:35.538Z,5.33
2019-06-07T14:00:10.804Z,5.87
2019-06-07T14:02:37.375Z,5.50
2019-06-07T14:05:09.192Z,5.40
2019-06-07T14:07:37.915Z,5.87
2019-06-07T14:10:11.509Z,5.50
2019-06-07T14:12:40.518Z,5.63
2019-06-07T14:15:10.957Z,5.43
2019-06-07T14:17:39.563Z,5.30
2019-06-07T14:20:09.326Z,5.80
2019-06-07T14:22:38.358Z,4.93
2019-06-07T14:25:10.052Z,5.20
2019-06-07T14:27:38.705Z,5.70
2019-06-07T14:30:11.774Z,5.90
2019-06-07T14:32:40.438Z,5.30
2019-06-07T14:35:09.462Z,4.83
2019-06-07T14:37:38.216Z,5.50
2019-06-07T14:40:09.031Z,5.13
2019-06-07T14:42:37.737Z,5.57
2019-06-07T14:45:08.145Z,5.47
2019-06-07T14:47:36.913Z,5.60
2019-06-07T14:50:08.573Z,6.80
2019-06-07T14:52:37.182Z,5.67
2019-06-07T14:55:07.333Z,5.33
2019-06-07T14:57:39.627Z,5.27
2019-06-07T15:00:13.756Z,5.70
2019-06-07T15:02:42.431Z,5.30
2019-06-07T15:05:11.370Z,7.00
2019-06-07T15:07:40.487Z,5.17
2019-06-07T15:10:10.353Z,5.83
2019-06-07T15:12:39.909Z,5.50
2019-06-07T15:15:10.558Z,6.00
2019-06-07T15:17:39.435Z,5.20
2019-06-07T15:20:08.571Z,5.80
2019-06-07T15:22:38.731Z,5.60
2019-06-07T15:25:09.259Z,5.47
2019-06-07T15:27:38.014Z,7.07
2019-06-07T15:30:11.109Z,6.60
2019-06-07T15:32:40.158Z,5.70
2019-06-07T15:35:08.942Z,5.17
2019-06-07T15:37:39.238Z,4.90
2019-06-07T15:40:09.027Z,5.87
2019-06-07T15:42:49.085Z,5.73
2019-06-07T15:45:09.655Z,6.23
2019-06-07T15:47:38.590Z,5.27
2019-06-07T15:50:09.465Z,5.70
2019-06-07T15:52:38.487Z,5.33
2019-06-07T15:55:10.231Z,5.77
2019-06-07T15:57:42.164Z,6.90
2019-06-07T16:00:16.180Z,5.57
2019-06-07T16:02:44.893Z,10.17
2019-06-07T16:05:15.355Z,5.83
2019-06-07T16:07:44.110Z,7.03
2019-06-07T16:10:14.287Z,5.20
2019-06-07T16:12:58.832Z,6.40
2019-06-07T16:15:14.001Z,5.80
2019-06-07T16:17:43.902Z,5.77
2019-06-07T16:22:49.258Z,4.97
2019-06-07T16:25:18.579Z,6.17
2019-06-07T16:27:47.260Z,5.83
2019-06-07T16:30:17.532Z,7.00
2019-06-07T16:32:46.396Z,5.97
2019-06-07T16:35:15.450Z,6.27
2019-06-07T16:37:45.871Z,6.23
2019-06-07T16:40:15.968Z,6.60
2019-06-07T16:42:45.164Z,6.23
2019-06-07T16:45:15.016Z,6.77
2019-06-07T16:47:47.153Z,11.27
2019-06-07T16:50:14.531Z,6.40
2019-06-07T16:52:44.186Z,5.63
2019-06-07T16:55:15.056Z,5.80
2019-06-07T16:57:45.058Z,6.93
2019-06-07T17:00:14.800Z,8.27
2019-06-07T17:02:45.020Z,5.77
2019-06-07T17:05:14.657Z,5.80
2019-06-07T17:07:44.710Z,6.17
2019-06-07T17:10:14.507Z,6.60
2019-06-07T17:12:44.681Z,5.83
2019-06-07T17:15:15.695Z,6.63
2019-06-07T17:17:45.177Z,6.17
2019-06-07T17:20:17.066Z,5.90
2019-06-07T17:22:45.768Z,5.80
2019-06-07T17:25:15.141Z,5.70
2019-06-07T17:27:43.953Z,6.60
2019-06-07T17:30:13.619Z,8.17
2019-06-07T17:32:50.606Z,5.83
2019-06-07T17:35:13.725Z,9.53
2019-06-07T17:37:44.323Z,6.27
2019-06-07T17:40:14.715Z,6.40
2019-06-07T17:42:43.327Z,6.20
2019-06-07T17:45:14.226Z,7.07
2019-06-07T17:47:43.738Z,6.20
2019-06-07T17:50:12.853Z,6.87
2019-06-07T17:52:41.842Z,6.13
2019-06-07T17:55:11.257Z,6.57
2019-06-07T17:57:39.973Z,6.60
2019-06-07T18:00:28.000Z,7.73
2019-06-07T18:02:43.039Z,5.80
2019-06-07T18:05:14.742Z,5.20
2019-06-07T18:07:47.767Z,6.63
2019-06-07T18:10:21.083Z,8.00
2019-06-07T18:12:50.241Z,7.93
2019-06-07T18:15:21.931Z,6.20
2019-06-07T18:17:51.124Z,9.23
2019-06-07T18:20:19.940Z,4.67
2019-06-07T18:22:49.237Z,9.70
2019-06-07T18:25:18.073Z,4.90
2019-06-07T18:27:47.034Z,7.40
2019-06-07T18:30:15.672Z,4.97
2019-06-07T18:32:44.808Z,7.00
2019-06-07T18:35:14.383Z,5.80
2019-06-07T18:37:43.637Z,10.50
2019-06-07T18:40:13.079Z,6.73
2019-06-07T18:42:42.346Z,9.47
2019-06-07T18:45:12.352Z,6.40
2019-06-07T18:47:41.154Z,9.40
2019-06-07T18:50:10.630Z,4.90
2019-06-07T18:52:41.035Z,7.43
2019-06-07T18:55:11.430Z,6.23
2019-06-07T18:57:40.506Z,6.53
2019-06-07T19:00:12.093Z,7.10
2019-06-07T19:02:41.320Z,6.20
2019-06-07T19:05:12.347Z,6.10
2019-06-07T19:07:41.043Z,8.07
2019-06-07T19:10:11.787Z,6.70
2019-06-07T19:13:00.523Z,6.33
2019-06-07T19:15:29.742Z,6.70
2019-06-07T19:17:58.387Z,5.97
2019-06-07T19:20:27.110Z,7.03
2019-06-07T19:22:56.506Z,6.77
2019-06-07T19:25:25.550Z,8.33
2019-06-07T19:27:54.990Z,6.33
2019-06-07T19:30:24.107Z,6.50
2019-06-07T19:32:53.112Z,6.70
2019-06-07T19:35:22.203Z,7.17
2019-06-07T19:37:53.937Z,6.90
2019-06-07T19:40:22.764Z,8.03
2019-06-07T19:42:52.187Z,8.53
2019-06-07T19:45:30.857Z,9.50
2019-06-07T19:47:52.405Z,7.37
2019-06-07T19:50:21.453Z,6.53
2019-06-07T19:52:50.008Z,7.90
2019-06-07T19:55:19.033Z,8.23
2019-06-07T19:57:50.069Z,10.63
2019-06-07T20:00:18.392Z,6.70
2019-06-07T20:02:47.143Z,7.00
2019-06-07T20:05:16.579Z,7.03
2019-06-07T20:07:45.335Z,6.60
2019-06-07T20:10:14.538Z,7.07
2019-06-07T20:12:43.329Z,9.23
2019-06-07T20:15:27.924Z,5.73
2019-06-07T20:17:43.264Z,4.73
2019-06-07T20:20:14.155Z,6.60
2019-06-07T20:22:42.721Z,8.80
2019-06-07T20:25:20.712Z,13.13
2019-06-07T20:27:49.836Z,6.57
2019-06-07T20:30:19.421Z,11.67
2019-06-07T20:32:48.094Z,7.33
2019-06-07T20:35:16.946Z,9.13
2019-06-07T20:37:45.716Z,4.83
2019-06-07T20:40:24.384Z,6.10
2019-06-07T20:42:45.374Z,3.63
2019-06-07T20:45:14.223Z,4.00
2019-06-07T20:47:43.173Z,4.27
2019-06-07T20:50:12.392Z,4.60
2019-06-07T20:52:41.032Z,5.67
2019-06-07T20:55:11.422Z,4.70
2019-06-07T20:57:40.225Z,8.40
2019-06-07T21:00:16.337Z,6.93
2019-06-07T21:02:40.565Z,6.33
2019-06-07T21:05:10.031Z,3.60
2019-06-07T21:07:38.797Z,8.90
2019-06-07T21:10:10.679Z,4.73
2019-06-07T21:12:39.770Z,4.90
2019-06-07T21:15:12.771Z,6.20
2019-06-07T21:17:39.973Z,3.17
2019-06-07T21:20:13.756Z,5.23
2019-06-07T21:22:53.394Z,4.50
2019-06-07T21:25:22.052Z,2.70
2019-06-07T21:27:50.700Z,6.03
2019-06-07T21:30:21.082Z,4.67
2019-06-07T21:32:50.009Z,8.37
2019-06-07T21:35:19.295Z,13.73
2019-06-07T21:37:47.994Z,2.50
2019-06-07T21:40:16.747Z,9.63
2019-06-07T21:42:47.399Z,7.90
2019-06-07T21:45:16.334Z,7.30
2019-06-07T21:47:44.935Z,2.90
2019-06-07T21:50:14.060Z,3.40
2019-06-07T21:52:43.046Z,6.43
2019-06-07T21:55:12.053Z,6.50
2019-06-07T21:57:40.723Z,3.00
2019-06-07T22:00:18.395Z,5.90
2019-06-07T22:02:48.583Z,6.40
2019-06-07T22:05:17.284Z,2.20
2019-06-07T22:07:46.118Z,3.70
2019-06-07T22:10:15.342Z,2.27
2019-06-07T22:12:44.020Z,5.23
2019-06-07T22:15:31.164Z,7.53
2019-06-07T22:17:43.375Z,2.23
2019-06-07T22:20:12.795Z,2.10
2019-06-07T22:22:41.480Z,4.33
2019-06-07T22:25:11.050Z,4.13
2019-06-07T22:27:39.921Z,4.40
2019-06-07T22:30:10.535Z,3.43
2019-06-07T22:32:39.177Z,6.30
2019-06-07T22:35:08.984Z,4.70
2019-06-07T22:37:38.935Z,2.97
2019-06-07T22:40:08.612Z,2.20
2019-06-07T22:42:38.481Z,6.77
2019-06-07T22:45:08.029Z,2.60
2019-06-07T22:47:38.164Z,6.67
2019-06-07T22:50:11.330Z,2.07
2019-06-07T22:52:41.473Z,3.70
2019-06-07T22:55:12.084Z,2.20
2019-06-07T22:57:54.557Z,2.87
2019-06-07T23:00:23.667Z,3.43
2019-06-07T23:02:52.291Z,2.10
2019-06-07T23:05:20.912Z,2.87
2019-06-07T23:07:50.070Z,2.03
2019-06-07T23:10:19.629Z,3.03
2019-06-07T23:12:48.630Z,3.07
2019-06-07T23:15:18.016Z,3.80
2019-06-07T23:17:47.623Z,1.73
2019-06-07T23:20:18.131Z,3.10
2019-06-07T23:22:46.883Z,4.50
2019-06-07T23:25:21.845Z,3.93
2019-06-07T23:27:47.183Z,2.50
2019-06-07T23:30:18.734Z,3.00
2019-06-07T23:32:47.605Z,4.90
2019-06-07T23:35:17.332Z,1.87
2019-06-07T23:37:46.475Z,4.90
2019-06-07T23:40:17.363Z,1.70
2019-06-07T23:42:46.292Z,2.10
2019-06-07T23:45:15.521Z,2.73
2019-06-07T23:47:44.257Z,1.53
2019-06-07T23:50:13.587Z,2.13
2019-06-07T23:52:42.446Z,1.83
2019-06-07T23:55:11.830Z,1.80
2019-06-07T23:57:40.539Z,1.90
